Time;durP1;ratioP1;P1;durP2;ratioP2;P2;SDS_P1;SDS_P2;PMS_P1;PMS_P2;Temp;Humidity;BMP_temperature;BMP_pressure;BME280_temperature;BME280_humidity;BME280_pressure;Samples;Min_cycle;Max_cycle;Signal;HPM_P1;HPM_P2
2021/11/11 00:00:19;;;;;;;9.77;5.90;;;;;;;-140.79;100.00;63287.88;5006001;28;20088;-61
2021/11/11 00:02:44;;;;;;;9.55;5.80;;;;;;;-140.79;100.00;63287.88;4988420;28;20054;-61
2021/11/11 00:05:10;;;;;;;8.75;5.78;;;;;;;-140.79;100.00;63287.88;4988195;28;20033;-61
2021/11/11 00:07:36;;;;;;;8.88;5.90;;;;;;;-140.79;100.00;63287.88;4988051;28;20018;-61
2021/11/11 00:10:03;;;;;;;7.72;5.70;;;;;;;-140.79;100.00;63287.88;5005907;28;20033;-61
2021/11/11 00:12:31;;;;;;;8.23;5.32;;;;;;;-140.79;100.00;63287.88;5005767;28;20125;-61
2021/11/11 00:14:58;;;;;;;9.60;5.47;;;;;;;-140.79;100.00;63287.88;5005009;28;20034;-61
2021/11/11 00:17:23;;;;;;;9.30;5.80;;;;;;;-140.79;100.00;63287.88;5005934;28;20026;-61
2021/11/11 00:19:49;;;;;;;9.35;5.90;;;;;;;-140.79;100.00;63287.88;5005617;28;20022;-61
2021/11/11 00:22:14;;;;;;;8.90;5.85;;;;;;;-140.79;100.00;63287.88;5005529;28;20463;-61
2021/11/11 00:24:40;;;;;;;8.20;5.60;;;;;;;-140.79;100.00;63287.88;5005256;28;20037;-61
2021/11/11 00:27:05;;;;;;;10.02;5.85;;;;;;;-140.79;100.00;63287.88;5005238;28;20083;-61
2021/11/11 00:29:31;;;;;;;10.52;6.03;;;;;;;-140.79;100.00;63287.88;5005327;28;20030;-61
2021/11/11 00:31:56;;;;;;;10.02;5.80;;;;;;;-140.79;100.00;63287.88;5005377;28;20030;-61
2021/11/11 00:34:22;;;;;;;10.43;6.07;;;;;;;-140.79;100.00;63287.88;5005358;28;20026;-61
2021/11/11 00:36:47;;;;;;;9.05;5.93;;;;;;;-140.79;100.00;63287.88;5005125;28;20022;-60
2021/11/11 00:39:13;;;;;;;9.48;5.97;;;;;;;-140.79;100.00;63287.88;5005224;28;20064;-60
2021/11/11 00:41:38;;;;;;;9.13;5.85;;;;;;;-140.79;100.00;63287.88;5005065;28;20037;-61
2021/11/11 00:44:04;;;;;;;9.55;6.00;;;;;;;-140.79;100.00;63287.88;5003698;28;20052;-61
2021/11/11 00:46:30;;;;;;;9.27;5.72;;;;;;;-140.79;100.00;63287.88;5003440;28;20049;-61
2021/11/11 00:48:55;;;;;;;9.52;5.63;;;;;;;-140.79;100.00;63287.88;5005418;28;20036;-61
2021/11/11 00:51:21;;;;;;;8.50;5.25;;;;;;;-140.79;100.00;63287.88;5005182;28;20068;-61
2021/11/11 00:53:46;;;;;;;9.30;5.93;;;;;;;-140.79;100.00;63287.88;5004955;28;20029;-61
2021/11/11 00:56:12;;;;;;;9.02;5.50;;;;;;;-140.79;100.00;63287.88;5003678;28;20072;-61
2021/11/11 00:58:37;;;;;;;9.25;5.60;;;;;;;-140.79;100.00;63287.88;5004465;28;20117;-60
2021/11/11 01:03:41;;;;;;;8.32;5.28;;;;;;;-140.79;100.00;63287.88;4351141;26;20084;-66
2021/11/11 01:06:08;;;;;;;9.07;5.60;;;;;;;-140.79;100.00;63287.88;5004336;28;20061;-66
2021/11/11 01:08:33;;;;;;;10.05;5.95;;;;;;;-140.79;100.00;63287.88;4987241;28;20112;-66
2021/11/11 01:11:00;;;;;;;9.13;5.65;;;;;;;-140.79;100.00;63287.88;5005342;28;20151;-66
2021/11/11 01:13:25;;;;;;;8.88;5.68;;;;;;;-140.79;100.00;63287.88;4987502;28;20030;-66
2021/11/11 01:15:51;;;;;;;8.93;5.15;;;;;;;-140.79;100.00;63287.88;5005134;28;20017;-66
2021/11/11 01:18:16;;;;;;;8.57;5.68;;;;;;;-140.79;100.00;63287.88;5005222;28;20061;-66
2021/11/11 01:20:42;;;;;;;10.10;5.82;;;;;;;-140.79;100.00;63287.88;5005044;28;20120;-66
2021/11/11 01:23:08;;;;;;;8.63;5.53;;;;;;;-140.79;100.00;63287.88;5004838;28;20022;-66
2021/11/11 01:25:35;;;;;;;8.73;5.68;;;;;;;-140.79;100.00;63287.88;4987327;28;20030;-66
2021/11/11 01:28:00;;;;;;;8.75;5.35;;;;;;;-140.79;100.00;63287.88;4987664;28;20073;-67
2021/11/11 01:30:25;;;;;;;9.18;5.82;;;;;;;-140.79;100.00;63287.88;4971257;28;20034;-67
2021/11/11 01:32:51;;;;;;;8.00;5.07;;;;;;;-140.79;100.00;63287.88;5004907;28;20038;-67
2021/11/11 01:35:16;;;;;;;9.57;5.93;;;;;;;-140.79;100.00;63287.88;5004924;28;20037;-66
2021/11/11 01:37:44;;;;;;;7.95;5.43;;;;;;;-140.79;100.00;63287.88;5004884;28;20021;-65
2021/11/11 01:40:10;;;;;;;8.75;5.43;;;;;;;-140.79;100.00;63287.88;4987483;28;20110;-66
2021/11/11 01:42:43;;;;;;;8.60;5.30;;;;;;;-140.79;100.00;63287.88;5004750;28;20116;-66
2021/11/11 01:45:09;;;;;;;8.38;5.50;;;;;;;-140.79;100.00;63287.88;5004823;28;20049;-66
2021/11/11 01:47:36;;;;;;;9.88;5.85;;;;;;;-140.79;100.00;63287.88;5004313;28;20022;-66
2021/11/11 01:50:03;;;;;;;8.77;5.22;;;;;;;-140.79;100.00;63287.88;4987464;28;20490;-66
2021/11/11 01:52:28;;;;;;;9.02;5.80;;;;;;;-140.79;100.00;63287.88;5003225;28;20030;-66
2021/11/11 01:54:53;;;;;;;8.65;5.38;;;;;;;-140.79;100.00;63287.88;5004353;28;20041;-66
2021/11/11 01:57:19;;;;;;;7.82;4.82;;;;;;;-140.79;100.00;63287.88;4987079;28;20033;-66
2021/11/11 01:59:44;;;;;;;10.65;5.53;;;;;;;-140.79;100.00;63287.88;4986938;28;20022;-65
2021/11/11 02:02:10;;;;;;;9.38;5.45;;;;;;;-140.79;100.00;63287.88;5004664;28;20046;-67
2021/11/11 02:04:35;;;;;;;9.57;5.90;;;;;;;-140.79;100.00;63287.88;5004308;28;20065;-65
2021/11/11 02:07:01;;;;;;;10.23;5.85;;;;;;;-140.79;100.00;63287.88;5004206;28;20038;-66
2021/11/11 02:09:26;;;;;;;9.25;5.68;;;;;;;-140.79;100.00;63287.88;5004643;28;20021;-66
2021/11/11 02:11:52;;;;;;;8.80;5.30;;;;;;;-140.79;100.00;63287.88;5007502;28;20033;-66
2021/11/11 02:14:17;;;;;;;9.45;5.97;;;;;;;-140.79;100.00;63287.88;5008076;28;20109;-66
2021/11/11 02:16:43;;;;;;;8.68;5.20;;;;;;;-140.79;100.00;63287.88;4974260;28;20033;-67
2021/11/11 02:19:08;;;;;;;8.63;5.47;;;;;;;-140.79;100.00;63287.88;4989986;28;20045;-66
2021/11/11 02:21:37;;;;;;;8.85;5.40;;;;;;;-140.79;100.00;63287.88;5008038;28;20152;-66
2021/11/11 02:24:03;;;;;;;8.27;5.22;;;;;;;-140.79;100.00;63287.88;5007773;28;20450;-67
2021/11/11 02:26:29;;;;;;;8.65;5.13;;;;;;;-140.79;100.00;63287.88;5007793;28;20034;-67
2021/11/11 02:28:55;;;;;;;8.70;5.30;;;;;;;-140.79;100.00;63287.88;5007486;28;20032;-67
2021/11/11 02:31:20;;;;;;;8.25;5.10;;;;;;;-140.79;100.00;63287.88;5007973;28;20030;-66
2021/11/11 02:33:56;;;;;;;8.68;5.30;;;;;;;-140.79;100.00;63287.88;5007323;28;20492;-66
2021/11/11 02:36:21;;;;;;;8.40;5.28;;;;;;;-140.79;100.00;63287.88;5007734;28;20089;-66
2021/11/11 02:38:49;;;;;;;9.20;5.18;;;;;;;-140.79;100.00;63287.88;5007259;28;20052;-66
2021/11/11 02:41:16;;;;;;;8.45;5.07;;;;;;;-140.79;100.00;63287.88;4990209;28;20060;-66
2021/11/11 02:43:42;;;;;;;10.40;6.10;;;;;;;-140.79;100.00;63287.88;5007214;28;20033;-67
2021/11/11 02:46:08;;;;;;;9.68;5.28;;;;;;;-140.79;100.00;63287.88;5007252;28;20163;-66
2021/11/11 02:48:33;;;;;;;9.77;5.63;;;;;;;-140.79;100.00;63287.88;5007255;28;20137;-67
2021/11/11 02:50:58;;;;;;;9.38;5.60;;;;;;;-140.79;100.00;63287.88;5007291;28;20022;-67
2021/11/11 02:53:24;;;;;;;8.10;4.97;;;;;;;-140.79;100.00;63287.88;5007122;28;20519;-67
2021/11/11 02:55:50;;;;;;;9.20;4.70;;;;;;;-140.79;100.00;63287.88;5007337;28;20026;-67
2021/11/11 02:58:15;;;;;;;9.50;5.75;;;;;;;-140.79;100.00;63287.88;5007356;28;20054;-67
2021/11/11 03:00:54;;;;;;;10.18;5.60;;;;;;;-140.79;100.00;63287.88;5007554;28;20124;-67
2021/11/11 03:03:20;;;;;;;8.23;5.05;;;;;;;-140.79;100.00;63287.88;5007139;28;20061;-67
2021/11/11 03:05:45;;;;;;;7.45;4.70;;;;;;;-140.79;100.00;63287.88;5007201;28;20045;-66
2021/11/11 03:08:11;;;;;;;9.20;5.15;;;;;;;-140.79;100.00;63287.88;5006913;28;20038;-67
2021/11/11 03:10:39;;;;;;;7.28;4.88;;;;;;;-140.79;100.00;63287.88;5007006;28;20060;-67
2021/11/11 03:13:04;;;;;;;8.55;5.00;;;;;;;-140.79;100.00;63287.88;5006718;28;20045;-67
2021/11/11 03:15:30;;;;;;;7.32;4.90;;;;;;;-140.79;100.00;63287.88;4989243;28;20503;-67
2021/11/11 03:17:56;;;;;;;8.40;5.20;;;;;;;-140.79;100.00;63287.88;5006650;28;20030;-66
2021/11/11 03:20:21;;;;;;;7.05;4.80;;;;;;;-140.79;100.00;63287.88;5007081;28;20048;-66
2021/11/11 03:22:47;;;;;;;8.10;4.78;;;;;;;-140.79;100.00;63287.88;5006166;28;20037;-67
2021/11/11 03:25:18;;;;;;;8.30;5.38;;;;;;;-140.79;100.00;63287.88;5006881;28;20574;-67
2021/11/11 03:27:43;;;;;;;8.23;5.18;;;;;;;-140.79;100.00;63287.88;5007310;28;20045;-66
2021/11/11 03:30:11;;;;;;;7.95;4.97;;;;;;;-140.79;100.00;63287.88;5006815;28;20018;-66
2021/11/11 03:32:37;;;;;;;8.63;5.13;;;;;;;-140.79;100.00;63287.88;5006753;28;20060;-65
2021/11/11 03:35:03;;;;;;;8.32;4.72;;;;;;;-140.79;100.00;63287.88;5006497;28;20053;-67
2021/11/11 03:37:28;;;;;;;8.15;5.22;;;;;;;-140.79;100.00;63287.88;5006680;28;20026;-67
2021/11/11 03:39:54;;;;;;;8.07;5.32;;;;;;;-140.79;100.00;63287.88;5006357;28;20531;-67
2021/11/11 03:42:19;;;;;;;8.55;5.05;;;;;;;-140.79;100.00;63287.88;5006554;28;20040;-67
2021/11/11 03:44:45;;;;;;;8.63;4.65;;;;;;;-140.79;100.00;63287.88;5006183;28;20041;-67
2021/11/11 03:47:11;;;;;;;8.18;4.65;;;;;;;-140.79;100.00;63287.88;5006181;28;20041;-67
2021/11/11 03:49:36;;;;;;;9.05;4.72;;;;;;;-140.79;100.00;63287.88;5006272;28;20029;-67
2021/11/11 03:52:03;;;;;;;7.10;4.63;;;;;;;-140.79;100.00;63287.88;5006635;28;20053;-67
2021/11/11 03:54:28;;;;;;;7.57;4.68;;;;;;;-140.79;100.00;63287.88;5006381;28;20033;-67
2021/11/11 03:56:56;;;;;;;7.90;5.00;;;;;;;-140.79;100.00;63287.88;5006422;28;20115;-67
2021/11/11 03:59:21;;;;;;;8.90;4.55;;;;;;;-140.79;100.00;63287.88;5006153;28;20030;-67
2021/11/11 04:01:47;;;;;;;8.32;4.75;;;;;;;-140.79;100.00;63287.88;5006230;28;20029;-66
2021/11/11 04:04:12;;;;;;;8.45;4.50;;;;;;;-140.79;100.00;63287.88;5005830;28;20050;-67
2021/11/11 04:06:38;;;;;;;9.60;5.00;;;;;;;-140.79;100.00;63287.88;4988300;28;20029;-67
2021/11/11 04:09:03;;;;;;;7.95;5.07;;;;;;;-140.79;100.00;63287.88;4988295;28;20029;-67
2021/11/11 04:11:29;;;;;;;7.88;4.95;;;;;;;-140.79;100.00;63287.88;5005901;28;20478;-67
2021/11/11 04:13:55;;;;;;;9.07;5.22;;;;;;;-140.79;100.00;63287.88;4987953;28;20057;-67
2021/11/11 04:16:20;;;;;;;7.47;4.70;;;;;;;-140.79;100.00;63287.88;5006190;28;20076;-67
2021/11/11 04:18:46;;;;;;;8.60;5.03;;;;;;;-140.79;100.00;63287.88;5005739;28;20025;-67
2021/11/11 04:21:11;;;;;;;8.25;4.88;;;;;;;-140.79;100.00;63287.88;5005718;28;20075;-67
2021/11/11 04:23:37;;;;;;;8.70;4.55;;;;;;;-140.79;100.00;63287.88;4987872;28;20072;-67
2021/11/11 04:26:12;;;;;;;8.93;5.07;;;;;;;-140.79;100.00;63287.88;5005613;28;20435;-67
2021/11/11 04:31:32;;;;;;;7.93;4.40;;;;;;;-140.79;100.00;63287.88;4941927;28;20065;-67
2021/11/11 04:34:03;;;;;;;7.60;4.40;;;;;;;-140.79;100.00;63287.88;5004626;28;20029;-67
2021/11/11 04:39:21;;;;;;;7.65;4.70;;;;;;;-140.79;100.00;63287.88;5005749;28;20092;-67
2021/11/11 05:05:30;;;;;;;7.43;4.18;;;;;;;-140.79;100.00;63287.88;4998191;28;20060;-68
2021/11/11 05:07:56;;;;;;;9.10;4.63;;;;;;;-140.79;100.00;63287.88;5013786;28;20054;-68
2021/11/11 05:10:22;;;;;;;8.50;4.20;;;;;;;-140.79;100.00;63287.88;5013761;28;20026;-68
2021/11/11 05:12:48;;;;;;;7.75;4.35;;;;;;;-140.79;100.00;63287.88;5015042;28;20021;-68
2021/11/11 05:15:14;;;;;;;9.00;4.38;;;;;;;-140.79;100.00;63287.88;5014670;28;20510;-68
2021/11/11 05:17:42;;;;;;;7.35;3.97;;;;;;;-140.79;100.00;63287.88;5013494;28;20044;-67
2021/11/11 05:20:08;;;;;;;7.57;4.70;;;;;;;-140.79;100.00;63287.88;5014911;28;20040;-69
2021/11/11 05:22:34;;;;;;;8.60;4.13;;;;;;;-140.79;100.00;63287.88;5015018;28;20037;-71
2021/11/11 05:24:59;;;;;;;7.82;4.20;;;;;;;-140.79;100.00;63287.88;5012409;28;20014;-70
2021/11/11 05:27:26;;;;;;;10.30;4.30;;;;;;;-140.79;100.00;63287.88;5014253;28;20024;-72
2021/11/11 05:29:53;;;;;;;7.25;4.40;;;;;;;-140.79;100.00;63287.88;5016222;28;20061;-71
2021/11/11 05:32:19;;;;;;;8.80;4.40;;;;;;;-140.79;100.00;63287.88;5013516;28;20476;-71
2021/11/11 05:34:44;;;;;;;9.32;4.90;;;;;;;-140.79;100.00;63287.88;4997014;28;20025;-72
2021/11/11 05:37:12;;;;;;;14.88;5.18;;;;;;;-140.79;100.00;63287.88;5014878;28;20076;-71
2021/11/11 05:39:37;;;;;;;10.63;4.25;;;;;;;-140.79;100.00;63287.88;5012254;28;20095;-71
2021/11/11 05:42:03;;;;;;;16.42;5.00;;;;;;;-140.79;100.00;63287.88;5014737;28;20141;-66
2021/11/11 05:44:29;;;;;;;16.15;4.85;;;;;;;-140.79;100.00;63287.88;5015434;28;20033;-66
2021/11/11 05:46:54;;;;;;;19.17;5.20;;;;;;;-140.79;100.00;63287.88;5020256;28;20558;-70
2021/11/11 05:49:20;;;;;;;20.90;6.75;;;;;;;-140.79;100.00;63287.88;5027316;28;20104;-72
2021/11/11 05:51:45;;;;;;;17.27;5.18;;;;;;;-140.79;100.00;63287.88;5021344;28;20025;-72
2021/11/11 05:54:11;;;;;;;16.00;4.97;;;;;;;-140.79;100.00;63287.88;5027499;28;20103;-69
2021/11/11 05:56:36;;;;;;;20.48;5.30;;;;;;;-140.79;100.00;63287.88;5019995;28;20025;-70
2021/11/11 05:59:03;;;;;;;18.48;5.97;;;;;;;-140.79;100.00;63287.88;5027610;28;20032;-71
2021/11/11 06:01:28;;;;;;;25.30;5.18;;;;;;;-140.79;100.00;63287.88;5026144;28;20076;-71
2021/11/11 06:03:54;;;;;;;19.75;5.15;;;;;;;-140.79;100.00;63287.88;5027295;28;20041;-70
2021/11/11 06:06:19;;;;;;;20.77;6.03;;;;;;;-140.79;100.00;63287.88;5027118;28;20034;-70
2021/11/11 06:08:45;;;;;;;20.10;5.15;;;;;;;-140.79;100.00;63287.88;5027604;28;20025;-69
2021/11/11 06:11:10;;;;;;;26.10;5.68;;;;;;;-140.79;100.00;63287.88;5028020;28;20025;-69
2021/11/11 06:13:36;;;;;;;27.38;6.85;;;;;;;-140.79;100.00;63287.88;5010132;28;20479;-70
2021/11/11 06:16:02;;;;;;;23.05;5.50;;;;;;;-140.79;100.00;63287.88;5027245;28;20029;-70
2021/11/11 06:18:29;;;;;;;19.85;5.80;;;;;;;-140.79;100.00;63287.88;5027808;28;20029;-72
2021/11/11 06:21:00;;;;;;;20.98;5.50;;;;;;;-140.79;100.00;63287.88;4990972;28;20017;-66
2021/11/11 06:23:26;;;;;;;17.23;5.05;;;;;;;-140.79;100.00;63287.88;5008560;28;20122;-67
2021/11/11 06:25:52;;;;;;;16.98;5.50;;;;;;;-140.79;100.00;63287.88;5021422;28;20055;-67
2021/11/11 06:28:17;;;;;;;15.82;4.75;;;;;;;-140.79;100.00;63287.88;5025370;28;20468;-67
2021/11/11 06:30:43;;;;;;;22.45;7.68;;;;;;;-140.79;100.00;63287.88;5008762;28;20202;-68
2021/11/11 06:33:08;;;;;;;26.45;11.25;;;;;;;-140.79;100.00;63287.88;5027017;28;20041;-69
2021/11/11 06:35:34;;;;;;;23.98;11.70;;;;;;;-140.79;100.00;63287.88;5023772;28;20054;-70
2021/11/11 06:37:59;;;;;;;27.85;12.35;;;;;;;-140.79;100.00;63287.88;5001359;28;20045;-70
2021/11/11 06:40:26;;;;;;;30.70;12.02;;;;;;;-140.79;100.00;63287.88;5024558;28;20045;-70
2021/11/11 06:42:51;;;;;;;27.92;12.88;;;;;;;-140.79;100.00;63287.88;5007223;28;20025;-71
2021/11/11 06:45:18;;;;;;;25.08;12.77;;;;;;;-140.79;100.00;63287.88;5026184;28;20044;-70
2021/11/11 06:47:44;;;;;;;28.75;12.77;;;;;;;-140.79;100.00;63287.88;5007918;28;20337;-71
2021/11/11 06:50:09;;;;;;;30.05;12.43;;;;;;;-140.79;100.00;63287.88;5026897;28;20036;-72
2021/11/11 06:52:37;;;;;;;26.02;11.90;;;;;;;-140.79;100.00;63287.88;5026351;28;20116;-71
2021/11/11 06:55:04;;;;;;;29.02;11.73;;;;;;;-140.79;100.00;63287.88;5008606;28;20041;-71
2021/11/11 06:57:29;;;;;;;29.02;11.50;;;;;;;-140.79;100.00;63287.88;5007384;28;20028;-70
2021/11/11 06:59:55;;;;;;;26.42;10.93;;;;;;;-140.79;100.00;63287.88;5027301;28;20037;-71
2021/11/11 07:02:20;;;;;;;26.23;10.85;;;;;;;-140.79;100.00;63287.88;5006790;28;20458;-75
2021/11/11 07:04:46;;;;;;;23.65;10.95;;;;;;;-140.79;100.00;63287.88;5008785;28;20040;-74
2021/11/11 07:07:12;;;;;;;24.90;10.02;;;;;;;-140.79;100.00;63287.88;5030064;28;20029;-74
2021/11/11 07:09:37;;;;;;;25.55;10.00;;;;;;;-140.79;100.00;63287.88;5025892;28;20407;-74
2021/11/11 07:12:03;;;;;;;28.83;11.43;;;;;;;-140.79;100.00;63287.88;5025855;28;20753;-75
2021/11/11 07:14:28;;;;;;;21.80;10.93;;;;;;;-140.79;100.00;63287.88;5032110;28;20022;-75
2021/11/11 07:16:54;;;;;;;26.60;9.73;;;;;;;-140.79;100.00;63287.88;5006641;28;20482;-74
2021/11/11 07:19:19;;;;;;;25.33;10.43;;;;;;;-140.79;100.00;63287.88;5029870;28;20080;-72
2021/11/11 07:21:45;;;;;;;24.42;10.13;;;;;;;-140.79;100.00;63287.88;5024357;28;20025;-69
2021/11/11 07:24:10;;;;;;;24.73;9.05;;;;;;;-140.79;100.00;63287.88;5023994;28;20025;-67
2021/11/11 07:26:35;;;;;;;26.55;10.52;;;;;;;-140.79;100.00;63287.88;5025807;28;20049;-68
2021/11/11 07:29:01;;;;;;;23.05;9.55;;;;;;;-140.79;100.00;63287.88;5011907;28;20044;-67
2021/11/11 07:31:27;;;;;;;20.83;8.80;;;;;;;-140.79;100.00;63287.88;5008144;28;20033;-67
2021/11/11 07:33:55;;;;;;;20.08;9.57;;;;;;;-140.79;100.00;63287.88;5008308;28;20025;-67
2021/11/11 07:36:21;;;;;;;22.90;9.60;;;;;;;-140.79;100.00;63287.88;5007376;28;20032;-68
2021/11/11 07:38:46;;;;;;;25.65;10.43;;;;;;;-140.79;100.00;63287.88;5025893;28;20049;-68
2021/11/11 07:41:11;;;;;;;21.17;8.50;;;;;;;-140.79;100.00;63287.88;5022826;28;20029;-68
2021/11/11 07:43:37;;;;;;;22.90;9.02;;;;;;;-140.79;100.00;63287.88;5025164;28;20941;-69
2021/11/11 07:46:06;;;;;;;19.45;8.18;;;;;;;-140.79;100.00;63287.88;5023338;28;20111;-68
2021/11/11 07:48:33;;;;;;;23.60;9.27;;;;;;;-140.79;100.00;63287.88;5007334;28;20033;-68
2021/11/11 07:51:00;;;;;;;21.05;8.52;;;;;;;-140.79;100.00;63287.88;5019070;28;20068;-68
2021/11/11 07:53:26;;;;;;;16.80;7.57;;;;;;;-140.79;100.00;63287.88;5022252;28;20751;-68
2021/11/11 07:55:52;;;;;;;18.58;8.15;;;;;;;-140.79;100.00;63287.88;5016741;28;20043;-69
2021/11/11 07:58:17;;;;;;;20.17;8.13;;;;;;;-140.79;100.00;63287.88;5016711;28;20488;-69
2021/11/11 08:00:43;;;;;;;19.55;7.30;;;;;;;-140.79;100.00;63287.88;5025103;28;20029;-68
2021/11/11 08:03:12;;;;;;;16.55;7.80;;;;;;;-140.79;100.00;63287.88;5028766;28;20049;-68
2021/11/11 08:05:39;;;;;;;18.75;7.43;;;;;;;-140.79;100.00;63287.88;4991695;28;20041;-67
2021/11/11 08:08:05;;;;;;;14.55;7.22;;;;;;;-140.79;100.00;63287.88;4992380;28;20021;-66
2021/11/11 08:10:31;;;;;;;15.38;7.43;;;;;;;-140.79;100.00;63287.88;5014195;28;20397;-67
2021/11/11 08:12:57;;;;;;;17.73;6.97;;;;;;;-140.79;100.00;63287.88;5010508;28;20370;-68
2021/11/11 08:15:22;;;;;;;19.15;7.15;;;;;;;-140.79;100.00;63287.88;5010208;28;20091;-68
2021/11/11 08:17:49;;;;;;;17.30;7.32;;;;;;;-140.79;100.00;63287.88;5011242;28;20470;-68
2021/11/11 08:20:14;;;;;;;16.77;7.75;;;;;;;-140.79;100.00;63287.88;5022368;28;20416;-68
2021/11/11 08:22:40;;;;;;;14.80;7.68;;;;;;;-140.79;100.00;63287.88;4947557;28;20141;-69
2021/11/11 08:25:11;;;;;;;16.40;6.70;;;;;;;-140.79;100.00;63287.88;4999717;28;20026;-68
2021/11/11 08:27:37;;;;;;;14.00;7.15;;;;;;;-140.79;100.00;63287.88;5005696;28;20092;-68
2021/11/11 08:30:06;;;;;;;16.73;6.85;;;;;;;-140.79;100.00;63287.88;5004487;28;20025;-67
2021/11/11 08:32:32;;;;;;;14.35;6.45;;;;;;;-140.79;100.00;63287.88;4996075;28;20034;-68
2021/11/11 08:34:58;;;;;;;13.45;6.40;;;;;;;-140.79;100.00;63287.88;5004188;28;20045;-68
2021/11/11 08:37:23;;;;;;;13.25;6.47;;;;;;;-140.79;100.00;63287.88;4986448;28;20052;-69
2021/11/11 08:39:49;;;;;;;14.70;6.28;;;;;;;-140.79;100.00;63287.88;5004833;28;20026;-68
2021/11/11 08:42:14;;;;;;;12.48;6.40;;;;;;;-140.79;100.00;63287.88;4988671;28;20527;-69
2021/11/11 08:44:42;;;;;;;14.50;6.82;;;;;;;-140.79;100.00;63287.88;4995840;28;20022;-68
2021/11/11 08:47:10;;;;;;;11.73;5.68;;;;;;;-140.79;100.00;63287.88;5003437;28;20033;-68
2021/11/11 08:49:35;;;;;;;14.80;7.32;;;;;;;-140.79;100.00;63287.88;4999845;28;20022;-68
2021/11/11 08:52:01;;;;;;;13.07;6.40;;;;;;;-140.79;100.00;63287.88;4999427;28;20519;-68
2021/11/11 08:54:27;;;;;;;11.65;6.18;;;;;;;-140.79;100.00;63287.88;5003405;28;20117;-67
2021/11/11 08:56:52;;;;;;;11.45;5.28;;;;;;;-140.79;100.00;63287.88;5003105;28;20021;-66
2021/11/11 08:59:21;;;;;;;11.63;5.93;;;;;;;-140.79;100.00;63287.88;5000669;28;20143;-67
2021/11/11 09:01:47;;;;;;;12.35;5.80;;;;;;;-140.79;100.00;63287.88;5003069;28;20091;-66
2021/11/11 09:04:13;;;;;;;12.40;5.57;;;;;;;-140.79;100.00;63287.88;4986940;28;20536;-67
2021/11/11 09:06:40;;;;;;;11.15;5.70;;;;;;;-140.79;100.00;63287.88;4966504;28;20034;-68
2021/11/11 09:09:06;;;;;;;12.57;6.05;;;;;;;-140.79;100.00;63287.88;4984687;28;20081;-67
2021/11/11 09:11:32;;;;;;;11.65;5.43;;;;;;;-140.79;100.00;63287.88;4985135;28;20062;-67
2021/11/11 09:13:57;;;;;;;12.65;6.10;;;;;;;-140.79;100.00;63287.88;4965181;28;20504;-66
2021/11/11 09:16:25;;;;;;;12.32;5.75;;;;;;;-140.79;100.00;63287.88;4965815;28;20022;-67
2021/11/11 09:18:50;;;;;;;13.88;6.78;;;;;;;-140.79;100.00;63287.88;4965281;28;20026;-67
2021/11/11 09:21:16;;;;;;;11.27;5.30;;;;;;;-140.79;100.00;63287.88;4970048;28;20033;-67
2021/11/11 09:23:41;;;;;;;9.90;5.30;;;;;;;-140.79;100.00;63287.88;4987909;28;20037;-66
2021/11/11 09:26:07;;;;;;;13.10;5.82;;;;;;;-140.79;100.00;63287.88;4987996;28;20477;-67
2021/11/11 09:28:33;;;;;;;9.15;5.50;;;;;;;-140.79;100.00;63287.88;4988440;28;20085;-67
2021/11/11 09:30:59;;;;;;;13.63;5.47;;;;;;;-140.79;100.00;63287.88;4970376;28;20489;-67
2021/11/11 09:33:24;;;;;;;9.88;5.20;;;;;;;-140.79;100.00;63287.88;4987553;28;20409;-68
2021/11/11 09:35:53;;;;;;;10.70;5.72;;;;;;;-140.79;100.00;63287.88;4954433;28;20042;-67
2021/11/11 09:38:20;;;;;;;11.02;5.15;;;;;;;-140.79;100.00;63287.88;4969644;28;20113;-67
2021/11/11 09:40:46;;;;;;;7.32;4.65;;;;;;;-140.79;100.00;63287.88;4987879;28;20072;-66
2021/11/11 09:43:11;;;;;;;8.20;4.53;;;;;;;-140.79;100.00;63287.88;4987045;28;20189;-67
2021/11/11 09:45:37;;;;;;;9.35;4.68;;;;;;;-140.79;100.00;63287.88;4988110;28;20253;-67
2021/11/11 09:48:02;;;;;;;10.43;5.18;;;;;;;-140.79;100.00;63287.88;4971115;28;20073;-67
2021/11/11 09:50:29;;;;;;;9.68;4.63;;;;;;;-140.79;100.00;63287.88;4971100;28;20038;-67
2021/11/11 09:52:54;;;;;;;10.73;4.70;;;;;;;-140.79;100.00;63287.88;4969369;28;20509;-67
2021/11/11 10:00:50;;;;;;;9.73;4.68;;;;;;;-140.79;100.00;63287.88;4987147;28;20104;-67
2021/11/11 10:03:15;;;;;;;9.63;4.45;;;;;;;-140.79;100.00;63287.88;4986818;28;20049;-66
2021/11/11 10:05:41;;;;;;;10.10;4.75;;;;;;;-140.79;100.00;63287.88;4969395;28;20034;-67
2021/11/11 10:08:07;;;;;;;7.90;4.40;;;;;;;-140.79;100.00;63287.88;4969452;28;20026;-67
2021/11/11 10:10:40;;;;;;;8.77;4.68;;;;;;;-140.79;100.00;63287.88;4967864;28;20487;-67
2021/11/11 10:13:16;;;;;;;9.68;5.03;;;;;;;-140.79;100.00;63287.88;4987346;28;20026;-68
2021/11/11 10:16:08;;;;;;;8.13;4.38;;;;;;;-140.79;100.00;63287.88;4987213;28;20026;-68
2021/11/11 10:18:49;;;;;;;8.15;4.70;;;;;;;-140.79;100.00;63287.88;4969785;28;20041;-68
2021/11/11 10:21:24;;;;;;;10.23;4.90;;;;;;;-140.79;100.00;63287.88;4984115;28;20034;-66
2021/11/11 10:23:50;;;;;;;7.82;4.43;;;;;;;-140.79;100.00;63287.88;4985952;28;20522;-66
2021/11/11 10:26:33;;;;;;;10.38;4.95;;;;;;;-140.79;100.00;63287.88;4987581;28;20049;-65
2021/11/11 10:28:58;;;;;;;7.20;4.07;;;;;;;-140.79;100.00;63287.88;4964481;28;20054;-64
2021/11/11 10:31:24;;;;;;;7.88;4.30;;;;;;;-140.79;100.00;63287.88;4952606;28;20080;-65
2021/11/11 10:34:09;;;;;;;7.97;3.90;;;;;;;-140.79;100.00;63287.88;4988280;28;20022;-68
2021/11/11 10:36:49;;;;;;;7.80;4.35;;;;;;;-140.79;100.00;63287.88;4988443;28;20085;-66
2021/11/11 10:39:30;;;;;;;8.20;4.30;;;;;;;-140.79;100.00;63287.88;4986977;28;20040;-68
2021/11/11 10:41:56;;;;;;;7.80;3.92;;;;;;;-140.79;100.00;63287.88;4984440;28;20412;-69
2021/11/11 10:44:28;;;;;;;8.55;4.20;;;;;;;-140.79;100.00;63287.88;4968304;28;20040;-70
2021/11/11 10:47:04;;;;;;;9.02;4.30;;;;;;;-140.79;100.00;63287.88;4967720;28;20091;-68
2021/11/11 10:49:37;;;;;;;8.48;4.57;;;;;;;-140.79;100.00;63287.88;4986027;28;20571;-69
2021/11/11 10:52:23;;;;;;;7.30;3.90;;;;;;;-140.79;100.00;63287.88;4982789;28;20030;-70
2021/11/11 10:55:13;;;;;;;9.80;4.10;;;;;;;-140.79;100.00;63287.88;4985467;28;20038;-69
2021/11/11 10:57:54;;;;;;;5.63;4.15;;;;;;;-140.79;100.00;63287.88;4986180;28;20030;-69
2021/11/11 11:00:24;;;;;;;6.88;4.43;;;;;;;-140.79;100.00;63287.88;4970945;28;20022;-69
2021/11/11 11:03:01;;;;;;;10.82;4.00;;;;;;;-140.79;100.00;63287.88;4983735;28;20085;-66
2021/11/11 11:05:58;;;;;;;5.97;3.70;;;;;;;-140.79;100.00;63287.88;4984578;28;20035;-67
2021/11/11 11:08:28;;;;;;;8.30;3.75;;;;;;;-140.79;100.00;63287.88;4985822;28;20555;-67
2021/11/11 11:11:17;;;;;;;8.80;4.60;;;;;;;-140.79;100.00;63287.88;4986005;28;20026;-67
2021/11/11 11:13:45;;;;;;;6.33;3.60;;;;;;;-140.79;100.00;63287.88;4983833;28;20388;-68
2021/11/11 11:16:16;;;;;;;8.85;4.32;;;;;;;-140.79;100.00;63287.88;4985572;28;20030;-67
2021/11/11 11:18:55;;;;;;;6.40;3.92;;;;;;;-140.79;100.00;63287.88;4968302;28;20769;-67
2021/11/11 11:21:33;;;;;;;7.73;4.20;;;;;;;-140.79;100.00;63287.88;4968880;28;20408;-67
2021/11/11 11:24:00;;;;;;;7.55;3.65;;;;;;;-140.79;100.00;63287.88;4985317;28;20045;-67
2021/11/11 11:26:32;;;;;;;7.45;3.75;;;;;;;-140.79;100.00;63287.88;4968041;28;20030;-67
2021/11/11 11:29:56;;;;;;;6.30;3.70;;;;;;;-140.79;100.00;63287.88;4981719;28;20034;-68
2021/11/11 11:32:41;;;;;;;7.55;4.68;;;;;;;-140.79;100.00;63287.88;4976125;28;20125;-67
2021/11/11 11:34:46;;;;;;;6.53;3.88;;;;;;;-140.79;100.00;63287.88;4955749;28;20121;-68
2021/11/11 11:37:13;;;;;;;6.03;3.50;;;;;;;-140.79;100.00;63287.88;4985595;28;20022;-66
2021/11/11 11:39:44;;;;;;;8.40;4.15;;;;;;;-140.79;100.00;63287.88;4965720;28;20038;-70
2021/11/11 11:42:25;;;;;;;6.07;3.55;;;;;;;-140.79;100.00;63287.88;4985842;28;20065;-71